Time;durP1;ratioP1;P1;durP2;ratioP2;P2;SDS_P1;SDS_P2;PMS_P1;PMS_P2;Temp;Humidity;BMP_temperature;BMP_pressure;BME280_temperature;BME280_humidity;BME280_pressure;Samples;Min_cycle;Max_cycle;Signal;HPM_P1;HPM_P2
2021/11/19 07:11:55;;;;;;;25.42;10.98;;;;;;;;;;5011317;28;80674;-19
2021/11/19 07:14:30;;;;;;;24.98;9.40;;;;;;;;;;5004793;28;83192;-18
2021/11/19 07:16:57;;;;;;;16.95;9.73;;;;;;;;;;4996224;28;82103;-23
2021/11/19 07:19:25;;;;;;;15.48;8.05;;;;;;;;;;4985954;28;83433;-20
2021/11/19 07:21:53;;;;;;;16.25;8.00;;;;;;;;;;4995872;28;84125;-24
2021/11/19 07:24:21;;;;;;;14.60;8.73;;;;;;;;;;4992333;28;83134;-20
2021/11/19 07:26:48;;;;;;;14.48;7.82;;;;;;;;;;4995325;28;83432;-17
2021/11/19 07:29:16;;;;;;;16.67;7.85;;;;;;;;;;4992997;28;83781;-18
2021/11/19 07:32:03;;;;;;;15.60;10.18;;;;;;;;;;4996111;28;80703;-19
2021/11/19 07:34:48;;;;;;;12.27;9.23;;;;;;;;;;4990542;28;83817;-20
2021/11/19 07:37:37;;;;;;;12.90;8.98;;;;;;;;;;4998107;28;81004;-20
2021/11/19 07:40:38;;;;;;;14.38;9.98;;;;;;;;;;4986053;28;80797;-20
2021/11/19 07:43:27;;;;;;;17.48;12.23;;;;;;;;;;5006048;28;83249;-21
2021/11/19 07:46:12;;;;;;;21.42;15.10;;;;;;;;;;5019221;28;85012;-16
2021/11/19 07:48:45;;;;;;;16.10;12.27;;;;;;;;;;5003750;28;83739;-17
2021/11/19 07:51:20;;;;;;;14.77;11.27;;;;;;;;;;5003632;28;86796;-19
2021/11/19 07:53:46;;;;;;;18.73;11.75;;;;;;;;;;5007535;28;85465;-18
2021/11/19 07:56:15;;;;;;;25.48;11.80;;;;;;;;;;5030674;27;83814;-17
2021/11/19 07:58:42;;;;;;;16.38;12.15;;;;;;;;;;4997928;28;84391;-17
2021/11/19 08:01:09;;;;;;;20.33;12.48;;;;;;;;;;5001534;28;83481;-18
2021/11/19 08:03:39;;;;;;;14.90;10.02;;;;;;;;;;4993117;28;87015;-18
2021/11/19 08:06:06;;;;;;;22.92;12.18;;;;;;;;;;4997254;28;84333;-17
2021/11/19 08:08:35;;;;;;;17.75;12.85;;;;;;;;;;4993118;28;83291;-19
2021/11/19 08:11:11;;;;;;;17.92;11.38;;;;;;;;;;4992617;28;85233;-20
2021/11/19 08:13:38;;;;;;;18.02;10.65;;;;;;;;;;4994263;28;85783;-18
2021/11/19 08:16:06;;;;;;;14.57;10.07;;;;;;;;;;4994496;28;83341;-18
2021/11/19 08:18:51;;;;;;;15.77;11.25;;;;;;;;;;4997906;28;85784;-16
2021/11/19 08:21:18;;;;;;;16.17;10.18;;;;;;;;;;4992787;28;83215;-18
2021/11/19 08:23:57;;;;;;;16.45;9.98;;;;;;;;;;4983209;28;85117;-17
2021/11/19 08:26:32;;;;;;;14.35;9.98;;;;;;;;;;4981258;28;84343;-17
2021/11/19 08:28:59;;;;;;;15.75;9.32;;;;;;;;;;4983036;28;83173;-17
2021/11/19 08:31:26;;;;;;;15.20;9.65;;;;;;;;;;4983461;28;84192;-17
2021/11/19 08:33:53;;;;;;;16.60;10.07;;;;;;;;;;4983405;28;81939;-20
2021/11/19 08:36:22;;;;;;;11.85;8.18;;;;;;;;;;4982603;28;83083;-18
2021/11/19 08:38:48;;;;;;;9.70;7.28;;;;;;;;;;4984815;28;85094;-18
2021/11/19 08:41:16;;;;;;;9.85;5.57;;;;;;;;;;4987574;28;81796;-17
2021/11/19 08:43:44;;;;;;;8.85;6.25;;;;;;;;;;4984719;28;81616;-18
2021/11/19 08:46:12;;;;;;;9.23;3.97;;;;;;;;;;4985083;28;81800;-17
2021/11/19 08:48:41;;;;;;;6.70;4.30;;;;;;;;;;4984718;28;82231;-20
2021/11/19 08:51:09;;;;;;;6.40;4.15;;;;;;;;;;4983848;28;82686;-11
2021/11/19 08:53:37;;;;;;;6.68;4.80;;;;;;;;;;4984219;28;80751;-12
2021/11/19 08:56:04;;;;;;;7.13;4.10;;;;;;;;;;4984418;28;81016;-13
2021/11/19 08:58:32;;;;;;;5.53;4.22;;;;;;;;;;4984805;28;81507;-11
2021/11/19 09:01:00;;;;;;;3.78;2.78;;;;;;;;;;4985895;28;80739;-10
2021/11/19 09:03:27;;;;;;;4.60;3.08;;;;;;;;;;4988348;28;80678;-12
2021/11/19 09:05:54;;;;;;;4.65;2.55;;;;;;;;;;4985959;28;81683;-12
2021/11/19 09:08:22;;;;;;;14.05;4.82;;;;;;;;;;4985566;28;81856;-12
2021/11/19 09:10:50;;;;;;;6.13;3.47;;;;;;;;;;4983872;28;82502;-12
2021/11/19 09:13:17;;;;;;;5.93;3.90;;;;;;;;;;4986255;28;81672;-12
2021/11/19 09:15:44;;;;;;;5.38;4.32;;;;;;;;;;4985450;28;80924;-12
2021/11/19 09:18:11;;;;;;;7.57;3.55;;;;;;;;;;4971541;28;83748;-11
2021/11/19 09:21:13;;;;;;;4.82;3.22;;;;;;;;;;4967999;28;81854;-11
2021/11/19 09:23:50;;;;;;;4.93;3.30;;;;;;;;;;4986778;28;82726;-16
2021/11/19 09:26:22;;;;;;;4.72;3.50;;;;;;;;;;4971252;28;80810;-15
2021/11/19 09:28:50;;;;;;;5.13;3.05;;;;;;;;;;4970719;28;81854;-17
2021/11/19 09:31:19;;;;;;;6.90;3.22;;;;;;;;;;4966562;28;81525;-13
2021/11/19 09:33:47;;;;;;;6.28;3.53;;;;;;;;;;4969223;28;81648;-17
2021/11/19 09:36:14;;;;;;;5.57;3.70;;;;;;;;;;4968965;28;81949;-12
2021/11/19 09:38:41;;;;;;;15.45;4.05;;;;;;;;;;4968173;28;82256;-6
2021/11/19 09:41:13;;;;;;;4.97;3.50;;;;;;;;;;4967305;28;81793;-7
2021/11/19 09:43:45;;;;;;;3.85;3.10;;;;;;;;;;4967757;28;81868;-9
2021/11/19 09:46:30;;;;;;;4.53;3.67;;;;;;;;;;4971427;28;82605;-13
2021/11/19 09:49:06;;;;;;;12.13;2.55;;;;;;;;;;4968924;28;81127;-16
2021/11/19 09:51:51;;;;;;;12.90;6.47;;;;;;;;;;4977943;28;81435;-12
2021/11/19 09:54:32;;;;;;;6.70;3.95;;;;;;;;;;4984021;28;81993;-16
2021/11/19 09:57:08;;;;;;;6.18;3.78;;;;;;;;;;4984414;28;81959;-9
2021/11/19 09:59:42;;;;;;;5.47;3.95;;;;;;;;;;4984203;28;82078;-11
2021/11/19 10:02:31;;;;;;;5.60;3.72;;;;;;;;;;4984375;28;81694;-12
2021/11/19 10:05:18;;;;;;;7.57;3.95;;;;;;;;;;4984325;28;81811;-12
2021/11/19 10:07:52;;;;;;;5.97;3.88;;;;;;;;;;4985065;28;82430;-15
2021/11/19 10:10:22;;;;;;;5.63;3.90;;;;;;;;;;4985421;28;80603;-16
2021/11/19 10:12:55;;;;;;;6.07;4.75;;;;;;;;;;4983072;28;82722;-13
2021/11/19 10:15:37;;;;;;;5.13;3.72;;;;;;;;;;4983261;28;80911;-10
2021/11/19 10:18:03;;;;;;;5.88;4.07;;;;;;;;;;4983354;28;80888;-12
2021/11/19 10:20:48;;;;;;;4.72;3.53;;;;;;;;;;4983505;28;82644;-8
2021/11/19 10:23:19;;;;;;;5.97;4.25;;;;;;;;;;4978300;28;80696;-13
2021/11/19 10:26:03;;;;;;;6.07;4.10;;;;;;;;;;4984049;28;80705;-12
2021/11/19 10:28:30;;;;;;;;;;;;;;;;;;4985187;28;82367;-14
2021/11/19 10:30:56;;;;;;;5.15;4.10;;;;;;;;;;4986488;28;81425;-12
2021/11/19 10:33:24;;;;;;;5.05;3.55;;;;;;;;;;4987249;28;82044;-14
2021/11/19 10:35:53;;;;;;;5.35;4.20;;;;;;;;;;4985015;28;80904;-10
2021/11/19 10:38:38;;;;;;;4.95;4.10;;;;;;;;;;4984395;28;81978;-15
2021/11/19 10:41:31;;;;;;;11.13;5.03;;;;;;;;;;4984449;28;82322;-17
2021/11/19 10:44:01;;;;;;;12.60;6.35;;;;;;;;;;4981234;28;81683;-17
2021/11/19 10:46:42;;;;;;;4.63;3.83;;;;;;;;;;4982857;28;80920;-21
2021/11/19 10:49:21;;;;;;;8.77;4.20;;;;;;;;;;4982653;28;82581;-19
2021/11/19 10:52:11;;;;;;;8.13;4.20;;;;;;;;;;4982524;28;81694;-18
2021/11/19 10:55:04;;;;;;;8.27;4.72;;;;;;;;;;4988487;28;81590;-20
2021/11/19 10:57:33;;;;;;;8.25;4.18;;;;;;;;;;4999773;28;82876;-19
2021/11/19 11:00:18;;;;;;;5.25;4.00;;;;;;;;;;4978792;28;81673;-18
2021/11/19 11:02:56;;;;;;;5.60;3.78;;;;;;;;;;4983898;28;81283;-18
2021/11/19 11:05:25;;;;;;;4.90;3.35;;;;;;;;;;4983439;28;81774;-18
2021/11/19 11:08:11;;;;;;;9.82;4.65;;;;;;;;;;4984393;28;82101;-17
2021/11/19 11:10:59;;;;;;;3.85;3.03;;;;;;;;;;4983235;28;83020;-20
2021/11/19 11:13:40;;;;;;;3.58;2.47;;;;;;;;;;4979219;28;81869;-19
2021/11/19 11:16:10;;;;;;;3.15;2.15;;;;;;;;;;4982763;28;80723;-18
2021/11/19 11:18:52;;;;;;;2.92;2.28;;;;;;;;;;4984339;28;82462;-19
2021/11/19 11:21:34;;;;;;;4.78;2.63;;;;;;;;;;4985094;28;80686;-20
2021/11/19 11:24:16;;;;;;;4.18;2.95;;;;;;;;;;4984058;28;82422;-18
2021/11/19 11:26:51;;;;;;;2.38;1.65;;;;;;;;;;4983942;28;81893;-20
2021/11/19 11:29:18;;;;;;;1.92;1.70;;;;;;;;;;4977791;28;83348;-18
2021/11/19 11:31:52;;;;;;;1.88;1.70;;;;;;;;;;4983440;28;82435;-19
2021/11/19 11:34:19;;;;;;;2.20;1.75;;;;;;;;;;4981077;28;82497;-20
2021/11/19 11:37:11;;;;;;;1.85;1.50;;;;;;;;;;4983213;28;82573;-18
2021/11/19 11:39:38;;;;;;;1.83;1.40;;;;;;;;;;4981078;28;82852;-18
2021/11/19 11:42:08;;;;;;;1.90;1.45;;;;;;;;;;4985903;28;84450;-20
2021/11/19 11:44:35;;;;;;;2.28;1.70;;;;;;;;;;4982274;28;82048;-16
2021/11/19 11:47:12;;;;;;;4.85;2.40;;;;;;;;;;4982385;28;82353;-14
2021/11/19 11:49:44;;;;;;;2.35;1.67;;;;;;;;;;4993285;28;83353;-15
2021/11/19 11:52:11;;;;;;;2.30;1.90;;;;;;;;;;4981434;28;82883;-14
2021/11/19 11:54:52;;;;;;;1.95;1.75;;;;;;;;;;4981017;28;83601;-16
2021/11/19 11:57:35;;;;;;;1.20;1.10;;;;;;;;;;4984473;28;83494;-15
2021/11/19 12:00:11;;;;;;;4.00;1.60;;;;;;;;;;4986366;28;82404;-14
2021/11/19 12:02:56;;;;;;;1.77;1.67;;;;;;;;;;4986346;28;82854;-16
2021/11/19 12:05:38;;;;;;;2.30;1.70;;;;;;;;;;4988679;28;83522;-14
2021/11/19 12:08:12;;;;;;;2.45;1.77;;;;;;;;;;4986440;28;84495;2
2021/11/19 12:11:02;;;;;;;2.58;2.10;;;;;;;;;;4984134;28;82599;1
2021/11/19 12:13:40;;;;;;;2.08;1.50;;;;;;;;;;4980741;28;82588;-4
2021/11/19 12:16:16;;;;;;;1.83;1.73;;;;;;;;;;4985583;28;83255;-1
2021/11/19 12:18:42;;;;;;;2.47;2.25;;;;;;;;;;4985554;28;83836;0
2021/11/19 12:21:35;;;;;;;2.15;1.70;;;;;;;;;;4986507;28;82497;0
2021/11/19 12:24:05;;;;;;;2.20;1.88;;;;;;;;;;4978499;28;83468;-1
2021/11/19 12:26:39;;;;;;;1.25;1.15;;;;;;;;;;4986177;28;83782;1
2021/11/19 12:29:20;;;;;;;2.03;1.85;;;;;;;;;;4988243;28;82493;2
2021/11/19 12:32:07;;;;;;;3.50;1.45;;;;;;;;;;4985219;28;84677;0
2021/11/19 12:34:36;;;;;;;4.28;2.08;;;;;;;;;;4985832;28;82474;-1
2021/11/19 12:37:10;;;;;;;1.88;1.50;;;;;;;;;;4986023;28;83398;-1
2021/11/19 12:39:38;;;;;;;18.52;16.73;;;;;;;;;;4985512;28;83774;-2
2021/11/19 12:42:07;;;;;;;42.05;37.95;;;;;;;;;;4984940;28;83109;-1
2021/11/19 12:44:34;;;;;;;31.15;28.17;;;;;;;;;;4984870;28;83371;3
2021/11/19 12:47:19;;;;;;;27.80;25.23;;;;;;;;;;4984551;28;83073;-1
2021/11/19 12:49:45;;;;;;;21.95;19.70;;;;;;;;;;4985397;28;85218;1
2021/11/19 12:52:12;;;;;;;23.02;20.80;;;;;;;;;;4986440;28;84462;2
2021/11/19 12:54:48;;;;;;;22.20;20.15;;;;;;;;;;4984758;28;85007;-1
2021/11/19 12:57:19;;;;;;;22.17;20.05;;;;;;;;;;4984099;28;83839;-1
2021/11/19 12:59:52;;;;;;;23.27;21.05;;;;;;;;;;4984219;28;83000;2
2021/11/19 13:02:21;;;;;;;21.52;19.33;;;;;;;;;;4983747;28;85116;2
2021/11/19 13:05:03;;;;;;;18.90;17.08;;;;;;;;;;4984554;28;84347;2
2021/11/19 13:07:29;;;;;;;18.13;16.33;;;;;;;;;;4983469;28;83561;2
2021/11/19 13:09:58;;;;;;;17.13;15.43;;;;;;;;;;4984007;28;85259;2
2021/11/19 13:12:27;;;;;;;17.83;16.05;;;;;;;;;;4984103;28;83827;2
2021/11/19 13:15:12;;;;;;;17.20;14.77;;;;;;;;;;4987211;28;83694;2
2021/11/19 13:17:42;;;;;;;16.17;14.68;;;;;;;;;;4983342;28;84568;-2
2021/11/19 13:20:28;;;;;;;15.43;13.95;;;;;;;;;;4983383;28;83510;0
2021/11/19 13:22:54;;;;;;;14.63;13.13;;;;;;;;;;4984688;28;84037;2
2021/11/19 13:25:38;;;;;;;14.60;13.10;;;;;;;;;;4983657;28;83532;1
2021/11/19 13:28:07;;;;;;;13.93;12.20;;;;;;;;;;4983074;28;83531;2
2021/11/19 13:30:34;;;;;;;13.63;12.32;;;;;;;;;;4982961;28;85101;2
2021/11/19 13:33:03;;;;;;;12.68;11.48;;;;;;;;;;4983317;28;84389;0
2021/11/19 13:35:30;;;;;;;13.10;11.55;;;;;;;;;;4983411;28;83491;-2
2021/11/19 13:38:04;;;;;;;12.25;11.18;;;;;;;;;;4986738;28;85308;-2
2021/11/19 13:40:33;;;;;;;;;;;;;;;;;;4983420;28;83280;0
2021/11/19 13:43:21;;;;;;;9.65;8.75;;;;;;;;;;4985320;28;85034;0
2021/11/19 13:45:47;;;;;;;9.52;8.63;;;;;;;;;;4983391;28;83271;1
2021/11/19 13:48:33;;;;;;;8.90;7.97;;;;;;;;;;4984467;28;84643;-2
2021/11/19 13:51:19;;;;;;;9.13;7.88;;;;;;;;;;4984567;28;82217;-2
2021/11/19 13:54:18;;;;;;;7.95;7.13;;;;;;;;;;4985118;28;83425;-1
2021/11/19 13:56:46;;;;;;;8.80;7.90;;;;;;;;;;4981746;28;83811;-2
2021/11/19 13:59:48;;;;;;;7.97;7.18;;;;;;;;;;4982453;28;82392;-4
2021/11/19 14:02:41;;;;;;;7.88;6.80;;;;;;;;;;4967782;28;83653;2
2021/11/19 14:05:15;;;;;;;7.78;6.70;;;;;;;;;;4980199;28;82302;1
2021/11/19 14:07:48;;;;;;;7.53;6.80;;;;;;;;;;4984542;28;83469;1
2021/11/19 14:10:30;;;;;;;8.27;6.13;;;;;;;;;;4983622;28;83585;-1
2021/11/19 14:13:19;;;;;;;7.45;5.53;;;;;;;;;;4982970;28;83301;-1
2021/11/19 14:15:58;;;;;;;9.77;6.30;;;;;;;;;;4982773;28;83372;-1
2021/11/19 14:24:02;;;;;;;9.45;4.25;;;;;;;;;;4978983;28;82532;-1
2021/11/19 14:26:30;;;;;;;11.07;5.28;;;;;;;;;;4984069;28;82734;-3
2021/11/19 14:28:59;;;;;;;7.78;4.80;;;;;;;;;;4984407;28;84665;-2
2021/11/19 14:31:25;;;;;;;7.45;4.40;;;;;;;;;;4983945;28;83369;1
2021/11/19 14:33:55;;;;;;;11.77;4.68;;;;;;;;;;4984862;28;82644;1
2021/11/19 14:36:41;;;;;;;7.78;4.32;;;;;;;;;;4983813;28;82616;0
2021/11/19 14:39:09;;;;;;;11.25;5.28;;;;;;;;;;4984528;28;83671;-2
2021/11/19 14:41:37;;;;;;;10.38;4.70;;;;;;;;;;4982816;28;82817;-1
2021/11/19 14:44:08;;;;;;;5.03;3.30;;;;;;;;;;4983838;28;84456;0
2021/11/19 14:46:40;;;;;;;10.00;4.07;;;;;;;;;;4985809;28;82483;1
2021/11/19 14:49:17;;;;;;;5.28;3.47;;;;;;;;;;4983816;28;83407;-2
2021/11/19 14:51:49;;;;;;;19.30;14.57;;;;;;;;;;4979993;28;84074;3
2021/11/19 14:54:18;;;;;;;13.02;6.35;;;;;;;;;;4980156;28;83461;-6
2021/11/19 14:57:00;;;;;;;8.13;3.90;;;;;;;;;;4980678;28;83451;3
2021/11/19 14:59:28;;;;;;;5.22;3.70;;;;;;;;;;4981827;28;82757;2
2021/11/19 15:01:55;;;;;;;4.18;2.58;;;;;;;;;;4982869;28;81855;1
2021/11/19 15:04:25;;;;;;;3.92;2.90;;;;;;;;;;4982675;28;83254;3
2021/11/19 15:07:04;;;;;;;2.92;2.53;;;;;;;;;;4981981;28;83501;4
2021/11/19 15:09:48;;;;;;;6.72;2.75;;;;;;;;;;4984120;28;81824;2
2021/11/19 15:12:24;;;;;;;8.48;3.30;;;;;;;;;;4981064;28;83592;3
2021/11/19 15:14:59;;;;;;;6.40;2.67;;;;;;;;;;4980889;28;82325;2
2021/11/19 15:17:25;;;;;;;9.35;3.42;;;;;;;;;;4980297;28;82345;2
2021/11/19 15:19:54;;;;;;;11.52;3.38;;;;;;;;;;4981426;28;83861;2
2021/11/19 15:22:23;;;;;;;9.90;3.20;;;;;;;;;;4981976;28;82140;3
2021/11/19 15:24:52;;;;;;;6.55;3.03;;;;;;;;;;4983616;28;82154;4
2021/11/19 15:27:25;;;;;;;3.35;2.95;;;;;;;;;;4983112;28;83605;3
2021/11/19 15:29:52;;;;;;;3.25;2.58;;;;;;;;;;4973262;28;82633;4
2021/11/19 15:32:31;;;;;;;4.93;2.42;;;;;;;;;;4974387;28;82796;4
2021/11/19 15:35:03;;;;;;;4.40;2.65;;;;;;;;;;4977421;28;82428;4
2021/11/19 15:37:33;;;;;;;12.75;3.20;;;;;;;;;;4978811;28;82541;3
2021/11/19 15:40:08;;;;;;;4.72;2.60;;;;;;;;;;4978345;28;84093;2
2021/11/19 15:42:41;;;;;;;4.03;2.35;;;;;;;;;;4979241;28;82250;3
2021/11/19 15:45:08;;;;;;;6.10;3.00;;;;;;;;;;4977285;28;82928;2
2021/11/19 15:47:35;;;;;;;4.10;2.35;;;;;;;;;;4976359;28;83574;3
2021/11/19 15:50:05;;;;;;;3.78;2.50;;;;;;;;;;4980428;28;82006;3
2021/11/19 15:52:51;;;;;;;3.83;2.88;;;;;;;;;;4971630;28;81953;3
2021/11/19 15:55:21;;;;;;;6.50;2.90;;;;;;;;;;4983324;28;83576;3
2021/11/19 15:57:48;;;;;;;3.78;2.63;;;;;;;;;;4976490;28;83499;2
2021/11/19 16:00:24;;;;;;;4.35;3.03;;;;;;;;;;4978141;28;83617;1
2021/11/19 16:03:01;;;;;;;7.05;3.95;;;;;;;;;;4979987;28;81968;1
2021/11/19 16:05:41;;;;;;;4.30;3.33;;;;;;;;;;4976642;28;83541;3
2021/11/19 16:08:11;;;;;;;5.93;2.90;;;;;;;;;;4973460;28;83612;4
2021/11/19 16:10:45;;;;;;;4.00;3.13;;;;;;;;;;4967421;28;82686;2
2021/11/19 16:13:11;;;;;;;;;;;;;;;;;;4982162;28;83511;1
2021/11/19 16:15:46;;;;;;;4.22;3.45;;;;;;;;;;4982222;28;81937;3
2021/11/19 16:18:15;;;;;;;5.35;3.83;;;;;;;;;;4977719;28;81927;3
2021/11/19 16:20:42;;;;;;;5.00;3.85;;;;;;;;;;4981131;28;83890;2
2021/11/19 16:23:08;;;;;;;4.78;3.70;;;;;;;;;;4976964;28;82742;2
2021/11/19 16:25:35;;;;;;;5.68;3.20;;;;;;;;;;4977590;28;83363;4
2021/11/19 16:28:02;;;;;;;5.97;4.85;;;;;;;;;;4972126;28;83691;1
2021/11/19 16:30:31;;;;;;;5.32;3.70;;;;;;;;;;4983221;28;82940;1
2021/11/19 16:32:58;;;;;;;4.60;3.25;;;;;;;;;;4978713;28;83587;1
2021/11/19 16:35:25;;;;;;;10.35;8.88;;;;;;;;;;4985921;28;82723;1
2021/11/19 16:37:52;;;;;;;8.05;5.10;;;;;;;;;;4983260;28;82016;1
2021/11/19 16:40:20;;;;;;;6.07;4.18;;;;;;;;;;4981587;28;83320;2
2021/11/19 16:42:47;;;;;;;9.35;4.50;;;;;;;;;;4983359;28;81757;1
2021/11/19 16:45:18;;;;;;;11.65;5.65;;;;;;;;;;4984292;28;82378;3
2021/11/19 16:47:49;;;;;;;6.93;4.10;;;;;;;;;;4983961;28;83516;2
2021/11/19 16:50:16;;;;;;;5.38;4.03;;;;;;;;;;4972483;28;82787;2
2021/11/19 16:52:44;;;;;;;4.93;3.50;;;;;;;;;;4977417;28;83258;4
2021/11/19 16:55:12;;;;;;;12.63;5.47;;;;;;;;;;4979185;28;82989;3
2021/11/19 16:57:39;;;;;;;5.60;4.13;;;;;;;;;;4981627;28;82864;3
2021/11/19 17:00:12;;;;;;;6.78;3.65;;;;;;;;;;4979650;28;83308;1
2021/11/19 17:02:39;;;;;;;10.80;4.75;;;;;;;;;;4975675;28;82433;3
2021/11/19 17:05:07;;;;;;;10.82;3.78;;;;;;;;;;4970639;28;83301;1
2021/11/19 17:07:34;;;;;;;5.00;4.30;;;;;;;;;;4972177;28;83842;2
2021/11/19 17:10:01;;;;;;;6.82;4.18;;;;;;;;;;4977050;28;82490;2
2021/11/19 17:12:28;;;;;;;4.68;3.70;;;;;;;;;;4978762;28;83211;1
2021/11/19 17:14:54;;;;;;;5.65;3.22;;;;;;;;;;4974268;28;82757;1
2021/11/19 17:17:21;;;;;;;4.68;3.92;;;;;;;;;;4973983;28;82172;2
2021/11/19 17:19:47;;;;;;;5.45;4.07;;;;;;;;;;4973796;28;83515;3
2021/11/19 17:22:14;;;;;;;5.03;3.97;;;;;;;;;;4979931;28;83469;2
2021/11/19 17:24:41;;;;;;;4.50;3.15;;;;;;;;;;4975741;28;83750;2
2021/11/19 17:27:08;;;;;;;4.15;2.92;;;;;;;;;;4974618;28;81791;2
2021/11/19 17:29:37;;;;;;;4.32;3.33;;;;;;;;;;4972368;28;82310;1
2021/11/19 17:32:04;;;;;;;4.93;3.50;;;;;;;;;;4972058;28;82612;1
2021/11/19 17:34:30;;;;;;;4.90;3.70;;;;;;;;;;4975749;28;83667;1
2021/11/19 17:36:57;;;;;;;4.68;3.33;;;;;;;;;;4975238;28;83709;1
2021/11/19 17:39:26;;;;;;;7.18;3.38;;;;;;;;;;4973655;28;84430;1
2021/11/19 17:41:53;;;;;;;4.20;3.03;;;;;;;;;;4973975;28;83647;1
2021/11/19 17:44:21;;;;;;;4.18;3.17;;;;;;;;;;4980186;28;82304;2
2021/11/19 17:46:50;;;;;;;3.17;2.85;;;;;;;;;;4974495;28;83217;1
2021/11/19 17:49:17;;;;;;;4.57;3.38;;;;;;;;;;4972451;28;82022;2
2021/11/19 17:51:45;;;;;;;4.45;3.17;;;;;;;;;;4974130;28;82373;1
2021/11/19 17:54:13;;;;;;;4.22;3.03;;;;;;;;;;4973237;28;83031;2
2021/11/19 17:56:41;;;;;;;4.80;3.72;;;;;;;;;;4981703;28;81908;1
2021/11/19 17:59:13;;;;;;;6.68;4.20;;;;;;;;;;4973931;28;83429;1
2021/11/19 18:01:40;;;;;;;7.22;3.63;;;;;;;;;;4974976;28;84554;2
2021/11/19 18:04:07;;;;;;;4.88;3.75;;;;;;;;;;4972982;28;82575;1
2021/11/19 18:06:35;;;;;;;6.78;4.47;;;;;;;;;;4978680;28;82374;2
2021/11/19 18:09:04;;;;;;;3.63;2.85;;;;;;;;;;4979479;28;83040;1
2021/11/19 18:11:36;;;;;;;5.50;3.65;;;;;;;;;;4972656;28;83330;1
2021/11/19 18:14:08;;;;;;;5.60;5.00;;;;;;;;;;4976389;28;83750;1
2021/11/19 18:16:36;;;;;;;4.28;3.47;;;;;;;;;;4977530;28;82501;2
2021/11/19 18:19:04;;;;;;;4.45;3.42;;;;;;;;;;4976261;28;83824;1
2021/11/19 18:21:31;;;;;;;5.35;3.70;;;;;;;;;;4976401;28;83525;0
2021/11/19 18:23:59;;;;;;;5.13;3.92;;;;;;;;;;4971112;28;82668;2
2021/11/19 18:26:27;;;;;;;3.67;3.10;;;;;;;;;;4983690;28;83358;0
2021/11/19 18:29:00;;;;;;;6.30;4.15;;;;;;;;;;4972580;28;82436;1
2021/11/19 18:31:29;;;;;;;3.95;2.97;;;;;;;;;;4973945;28;83132;1
2021/11/19 18:33:56;;;;;;;5.22;3.90;;;;;;;;;;4982080;28;83386;1
2021/11/19 18:36:23;;;;;;;6.95;4.22;;;;;;;;;;4972929;28;81721;0
2021/11/19 18:38:50;;;;;;;4.10;3.35;;;;;;;;;;4976433;28;83524;0
2021/11/19 18:41:19;;;;;;;5.38;4.05;;;;;;;;;;4971862;28;83780;0
2021/11/19 18:43:47;;;;;;;5.07;3.30;;;;;;;;;;4970691;28;81830;1
2021/11/19 18:46:15;;;;;;;4.05;3.30;;;;;;;;;;4971614;28;82587;2
2021/11/19 18:48:42;;;;;;;5.95;5.38;;;;;;;;;;4978820;28;83595;2
2021/11/19 18:51:10;;;;;;;4.60;3.70;;;;;;;;;;4975867;28;82776;2
2021/11/19 18:53:38;;;;;;;6.28;3.42;;;;;;;;;;4971187;28;83782;0
2021/11/19 18:56:04;;;;;;;4.18;3.72;;;;;;;;;;4969422;28;82397;0
2021/11/19 18:58:33;;;;;;;4.28;3.45;;;;;;;;;;4972163;28;83707;2
2021/11/19 19:01:26;;;;;;;4.25;3.28;;;;;;;;;;4982319;28;83689;3
2021/11/19 19:03:53;;;;;;;3.95;3.25;;;;;;;;;;4987188;28;82902;3
2021/11/19 19:06:21;;;;;;;4.30;3.50;;;;;;;;;;4983691;28;83432;0
2021/11/19 19:08:48;;;;;;;5.00;3.33;;;;;;;;;;4983042;28;82833;2
2021/11/19 19:11:18;;;;;;;3.63;3.33;;;;;;;;;;4983932;28;81816;3
2021/11/19 19:13:48;;;;;;;7.80;4.82;;;;;;;;;;4981733;28;84500;3
2021/11/19 19:16:16;;;;;;;5.15;3.92;;;;;;;;;;4982885;28;82883;3
2021/11/19 19:18:43;;;;;;;5.05;3.90;;;;;;;;;;4983454;28;82978;3
2021/11/19 19:21:12;;;;;;;4.57;3.47;;;;;;;;;;4983225;28;82653;3
2021/11/19 19:23:39;;;;;;;3.78;3.22;;;;;;;;;;4980548;28;81896;3
2021/11/19 19:26:08;;;;;;;6.55;4.30;;;;;;;;;;4983376;28;83386;2
2021/11/19 19:28:40;;;;;;;5.53;4.53;;;;;;;;;;4983323;28;83910;3
2021/11/19 19:31:11;;;;;;;4.88;3.83;;;;;;;;;;4983399;28;82252;2
2021/11/19 19:33:38;;;;;;;5.18;3.72;;;;;;;;;;4983799;28;83334;3
2021/11/19 19:36:08;;;;;;;4.22;2.97;;;;;;;;;;4981822;28;82490;3
2021/11/19 19:38:36;;;;;;;5.28;4.35;;;;;;;;;;4967976;28;83737;3
2021/11/19 19:41:07;;;;;;;4.57;3.13;;;;;;;;;;4968761;28;84489;3
2021/11/19 19:43:35;;;;;;;5.38;2.90;;;;;;;;;;4971039;28;82567;3
2021/11/19 19:46:02;;;;;;;5.88;3.75;;;;;;;;;;4968430;28;82221;3
2021/11/19 19:48:35;;;;;;;3.97;2.88;;;;;;;;;;4968140;28;83625;3
2021/11/19 19:51:03;;;;;;;6.40;2.83;;;;;;;;;;4967749;28;82570;3
2021/11/19 19:53:31;;;;;;;5.50;2.80;;;;;;;;;;4967547;28;83405;3
2021/11/19 19:55:58;;;;;;;4.10;2.53;;;;;;;;;;4971552;28;82558;3
2021/11/19 19:58:25;;;;;;;3.83;3.25;;;;;;;;;;4967393;28;83839;3
2021/11/19 20:00:53;;;;;;;3.22;2.28;;;;;;;;;;4965196;28;83013;3
2021/11/19 20:03:21;;;;;;;2.65;2.28;;;;;;;;;;4965919;28;82017;3
2021/11/19 20:05:48;;;;;;;26.52;3.50;;;;;;;;;;4962960;28;83386;3
2021/11/19 20:08:15;;;;;;;2.95;2.00;;;;;;;;;;4962645;28;83547;3
2021/11/19 20:10:42;;;;;;;2.28;2.08;;;;;;;;;;4963395;28;82423;2
2021/11/19 20:13:09;;;;;;;2.58;1.77;;;;;;;;;;4961969;28;83314;3
2021/11/19 20:15:38;;;;;;;2.30;1.83;;;;;;;;;;4960888;28;83359;3
2021/11/19 20:18:05;;;;;;;2.22;1.55;;;;;;;;;;4964778;28;82355;3
2021/11/19 20:20:37;;;;;;;1.67;1.40;;;;;;;;;;4968147;28;82562;3
2021/11/19 20:23:04;;;;;;;3.25;2.25;;;;;;;;;;4967785;28;81609;2
2021/11/19 20:25:33;;;;;;;3.17;1.80;;;;;;;;;;4965510;28;82566;3
2021/11/19 20:28:00;;;;;;;9.50;1.80;;;;;;;;;;4977754;28;83651;3
2021/11/19 20:30:29;;;;;;;2.83;1.10;;;;;;;;;;4978181;28;82797;3
2021/11/19 20:32:56;;;;;;;3.15;2.17;;;;;;;;;;4984004;28;83376;3
2021/11/19 20:35:24;;;;;;;1.70;1.60;;;;;;;;;;4985051;28;83771;3
2021/11/19 20:37:51;;;;;;;3.70;2.15;;;;;;;;;;4989465;28;83554;3
2021/11/19 20:40:21;;;;;;;2.47;1.73;;;;;;;;;;4983657;28;82698;3
2021/11/19 20:42:48;;;;;;;5.55;1.52;;;;;;;;;;4983372;28;82521;1
2021/11/19 20:45:17;;;;;;;2.30;1.48;;;;;;;;;;4985587;28;83446;1
2021/11/19 20:47:45;;;;;;;4.40;2.17;;;;;;;;;;4982913;28;81738;3
2021/11/19 20:50:13;;;;;;;2.17;1.75;;;;;;;;;;4983722;28;81844;3
2021/11/19 20:52:43;;;;;;;4.18;1.77;;;;;;;;;;4985918;28;82952;4
2021/11/19 20:55:11;;;;;;;2.50;1.60;;;;;;;;;;4984070;28;83795;3
2021/11/19 20:57:38;;;;;;;4.65;1.73;;;;;;;;;;4985552;28;83026;3
2021/11/19 21:00:06;;;;;;;4.05;1.55;;;;;;;;;;4980506;28;83310;3
2021/11/19 21:02:33;;;;;;;1.58;1.40;;;;;;;;;;4979994;28;83023;0
2021/11/19 21:05:00;;;;;;;4.00;1.23;;;;;;;;;;4983079;28;83327;4
2021/11/19 21:07:27;;;;;;;2.70;1.10;;;;;;;;;;4974341;28;83716;3
2021/11/19 21:09:53;;;;;;;4.93;1.17;;;;;;;;;;4973929;28;82473;3
2021/11/19 21:12:22;;;;;;;2.00;1.33;;;;;;;;;;4983005;28;82230;3
2021/11/19 21:14:51;;;;;;;2.60;1.70;;;;;;;;;;4978467;28;82570;3
2021/11/19 21:17:19;;;;;;;7.35;1.77;;;;;;;;;;4975683;28;82612;3
2021/11/19 21:19:47;;;;;;;2.55;1.70;;;;;;;;;;4969756;28;82865;3
2021/11/19 21:22:26;;;;;;;2.85;1.83;;;;;;;;;;4977448;28;83565;3
2021/11/19 21:24:53;;;;;;;1.88;1.73;;;;;;;;;;4975738;28;83304;3
2021/11/19 21:27:20;;;;;;;2.65;1.85;;;;;;;;;;4977331;28;82588;4
2021/11/19 21:29:47;;;;;;;2.78;2.17;;;;;;;;;;4976435;28;82320;3
2021/11/19 21:32:16;;;;;;;5.53;1.20;;;;;;;;;;4974820;28;81921;3
2021/11/19 21:34:43;;;;;;;3.00;1.60;;;;;;;;;;4973439;28;82728;3
2021/11/19 21:37:11;;;;;;;1.90;1.33;;;;;;;;;;4980340;28;81466;2
2021/11/19 21:39:39;;;;;;;6.47;1.40;;;;;;;;;;4974174;28;82107;3
2021/11/19 21:42:14;;;;;;;1.17;1.08;;;;;;;;;;4972124;28;82590;3
2021/11/19 21:44:41;;;;;;;7.05;1.63;;;;;;;;;;4976979;28;82702;3
2021/11/19 21:47:09;;;;;;;3.05;1.98;;;;;;;;;;4977283;28;83683;1
2021/11/19 21:49:37;;;;;;;2.15;1.60;;;;;;;;;;4977413;28;81965;3
2021/11/19 21:52:07;;;;;;;3.08;1.67;;;;;;;;;;4976651;28;83516;3
2021/11/19 21:54:35;;;;;;;2.42;1.63;;;;;;;;;;4974705;28;82771;3
2021/11/19 21:57:02;;;;;;;4.75;2.03;;;;;;;;;;4976906;28;82522;3
2021/11/19 21:59:31;;;;;;;2.10;1.60;;;;;;;;;;4976848;28;83490;3
2021/11/19 22:02:00;;;;;;;1.65;1.55;;;;;;;;;;4973308;28;81884;2
2021/11/19 22:04:29;;;;;;;1.98;1.23;;;;;;;;;;4977382;28;82965;2
2021/11/19 22:06:57;;;;;;;5.68;1.48;;;;;;;;;;4978896;28;83458;3
2021/11/19 22:09:25;;;;;;;1.63;1.27;;;;;;;;;;4977521;28;83022;3
2021/11/19 22:11:55;;;;;;;3.08;2.25;;;;;;;;;;4972341;28;84486;2
2021/11/19 22:14:24;;;;;;;3.83;1.48;;;;;;;;;;4973302;28;83392;2
2021/11/19 22:16:51;;;;;;;3.78;2.53;;;;;;;;;;4977727;28;82602;2
2021/11/19 22:19:18;;;;;;;3.13;2.40;;;;;;;;;;4977058;28;83373;3
2021/11/19 22:21:49;;;;;;;2.67;1.35;;;;;;;;;;4971422;28;83892;2
2021/11/19 22:24:16;;;;;;;4.38;1.88;;;;;;;;;;4973894;28;82546;2
2021/11/19 22:26:43;;;;;;;1.75;1.55;;;;;;;;;;4978964;28;82359;0
2021/11/19 22:29:10;;;;;;;1.40;1.30;;;;;;;;;;4976937;28;82429;2
2021/11/19 22:31:39;;;;;;;2.63;2.10;;;;;;;;;;4979062;28;83055;1
2021/11/19 22:34:06;;;;;;;1.52;1.42;;;;;;;;;;4969837;28;84739;1
2021/11/19 22:36:35;;;;;;;1.83;1.67;;;;;;;;;;4976389;28;82518;0
2021/11/19 22:39:15;;;;;;;2.45;1.50;;;;;;;;;;4978876;28;83679;0
2021/11/19 22:41:42;;;;;;;2.67;1.90;;;;;;;;;;4976734;28;83562;0